Lupton, Michigan
Current Conditions -  °F | °C
As of 9:53 PM on Saturday 25 Oct 2014 (Local Time) from KOSC Reporting Station
Clear Clear  
Wind Chill: 46°   Ceiling: Unl
Heat Index: 50°   Visibility: 10mi
Dew Point: 33°   Wind: 9mph
Humidity: 53%   Direction: 310°NW
Pressure: 29.73"   Gusts: NA
Location:  44.43°N, 84.03°W
Report Text: KOSC 260153Z AUTO 31008KT 10SM CLR 10/00 A2973 RMK AO2 T00990006
Loading
Personal Weather Stations






























Interactive Weather Map
Tropical Storm Tracking
New forecast layout! Learn more

10-Day Weather Forecast

Advertisements
Track Severe Weather on mobile